»·PEaware :: N16TT KSNA-KAVX

N16TT :: KSNA-KAVX

FLIGHT INFORMATION

Flight Status: Arrived
Operator: Privately registered:
United States
More flights under this callsign
Pilot: Gareth S. (19921)
Aircraft: Unknown
(PIPA)
More flights by this aircraft type
Origin: KSNA John Wayne-Orange Co
United States
Destination: KAVX Catalina
United States
More flights between these airports :: More routes between these airports
Route: SLI V21 SXC
File this flight plan on PilotEdge
Remarks: I-7
Altitude:
(Current/Filed)
4,000ft
Speed:
(Current/Filed)
160kts
Departed: 03-Dec-18 12:49 PM
Arrived: 03-Dec-18 01:24 PM
Distance/Time
Traveled:
32nm/0:35
Distance/Time
To Go:
Arrived

Flight Plot

Page will automatically refresh every two minutes.


Map Options




Map Legend


Flown Route
Filed Route
Departure Airport
Arrival Airport
Navaid (VOR, NDB)
Fix

Horizontal Profiles

Position Reports

Time Latitude Longitude Heading Altitude Ground
Speed
03-Dec-18 12:25 33.670849 -117.868235 215 59ft 0kts
03-Dec-18 12:26 33.670849 -117.868235 215 59ft 0kts
03-Dec-18 12:27 33.670849 -117.868235 215 59ft 0kts
03-Dec-18 12:28 33.670849 -117.868235 215 59ft 0kts
03-Dec-18 12:29 33.670849 -117.868235 215 59ft 0kts
03-Dec-18 12:30 33.670849 -117.868235 215 59ft 0kts
03-Dec-18 12:31 33.670849 -117.868235 215 59ft 0kts
03-Dec-18 12:32 33.670849 -117.868235 215 59ft 0kts
03-Dec-18 12:33 33.670849 -117.868235 215 59ft 0kts
03-Dec-18 12:34 33.670849 -117.868235 215 59ft 0kts
03-Dec-18 12:35 33.670849 -117.868235 215 59ft 0kts
03-Dec-18 12:36 33.670849 -117.868235 215 59ft 0kts
03-Dec-18 12:37 33.670849 -117.868235 215 59ft 0kts
03-Dec-18 12:38 33.670849 -117.868235 215 59ft 0kts
03-Dec-18 12:39 33.670849 -117.868235 215 59ft 0kts
03-Dec-18 12:40 33.670849 -117.868235 215 59ft 0kts
03-Dec-18 12:41 33.670849 -117.868235 215 59ft 0kts
03-Dec-18 12:42 33.670849 -117.868235 215 59ft 0kts
03-Dec-18 12:43 33.670849 -117.868235 215 59ft 0kts
03-Dec-18 12:44 33.670849 -117.868235 215 59ft 0kts
03-Dec-18 12:45 33.670849 -117.868235 215 59ft 0kts
03-Dec-18 12:46 33.670920 -117.868569 317 59ft 8kts
03-Dec-18 12:47 33.673157 -117.867186 41 59ft 4kts
03-Dec-18 12:48 33.676907 -117.865305 25 59ft 16kts
03-Dec-18 12:49 33.679968 -117.863640 296 59ft 0kts
03-Dec-18 12:50 33.679968 -117.863640 296 59ft 0kts
03-Dec-18 12:51 33.679968 -117.863640 296 59ft 0kts
03-Dec-18 12:52 33.672063 -117.869525 209 202ft 101kts
03-Dec-18 12:53 33.648257 -117.899551 231 1488ft 126kts
03-Dec-18 12:54 33.624038 -117.936752 231 2002ft 162kts
03-Dec-18 12:55 33.595899 -117.979790 231 2000ft 164kts
03-Dec-18 12:56 33.577598 -118.026910 271 2277ft 153kts
03-Dec-18 12:57 33.578407 -118.075530 271 3762ft 140kts
03-Dec-18 12:58 33.578670 -118.128242 271 4001ft 170kts
03-Dec-18 12:59 33.578755 -118.183606 271 4002ft 162kts
03-Dec-18 13:00 33.578636 -118.237371 271 4005ft 159kts
03-Dec-18 13:01 33.546206 -118.272179 213 4007ft 165kts
03-Dec-18 13:02 33.503403 -118.292635 201 3996ft 166kts
03-Dec-18 13:03 33.459996 -118.311541 201 3969ft 165kts
03-Dec-18 13:04 33.415704 -118.326459 191 3972ft 167kts
03-Dec-18 13:05 33.370159 -118.337421 191 3972ft 167kts
03-Dec-18 13:06 33.325767 -118.348072 191 3971ft 158kts
03-Dec-18 13:07 33.293564 -118.372034 282 3967ft 144kts
03-Dec-18 13:08 33.324508 -118.396602 341 3972ft 138kts
03-Dec-18 13:09 33.360626 -118.411465 341 3972ft 137kts
03-Dec-18 13:10 33.395785 -118.412839 4 4012ft 134kts
03-Dec-18 13:11 33.433471 -118.409501 3 4000ft 136kts
03-Dec-18 13:12 33.472364 -118.405853 3 3584ft 159kts
03-Dec-18 13:13 33.511345 -118.417256 318 3395ft 143kts
03-Dec-18 13:14 33.542596 -118.439012 22 3391ft 136kts
03-Dec-18 13:15 33.535411 -118.402128 138 3396ft 143kts
03-Dec-18 13:16 33.496828 -118.394488 183 3003ft 166kts
03-Dec-18 13:17 33.449196 -118.406654 183 2302ft 173kts
03-Dec-18 13:18 33.410936 -118.424181 265 2295ft 151kts
03-Dec-18 13:19 33.417523 -118.472361 281 2299ft 144kts
03-Dec-18 13:20 33.424523 -118.519149 282 2300ft 142kts
03-Dec-18 13:21 33.427990 -118.565659 238 2300ft 144kts
03-Dec-18 13:22 33.402386 -118.550575 98 2302ft 140kts
03-Dec-18 13:23 33.409783 -118.505865 71 2300ft 138kts
03-Dec-18 13:24 33.409188 -118.460201 97 2300ft 140kts
03-Dec-18 13:25 33.418155 -118.421004 52 2324ft 93kts
03-Dec-18 13:26 33.422854 -118.399857 154 2282ft 91kts
03-Dec-18 13:27 33.405306 -118.415236 217 1542ft 17kts
03-Dec-18 13:28 33.403223 -118.415509 317 1548ft 0kts
03-Dec-18 13:29 33.403223 -118.415509 317 1548ft 0kts
03-Dec-18 13:30 33.403223 -118.415509 317 1548ft 0kts

Navigation Log

Ident Type
Flight plan parsing failed, navigation log unavailable